AirNav   MODERNIZE NOT PRIVATIZE ATC
 
 522 users online  

8TN2 Pleasant Grove Airpark
Shelbyville, Tennessee, USA

GOING TO SHELBYVILLE?


FAA INFORMATION EFFECTIVE 20 JULY 2017

Location

FAA Identifier: 8TN2
Lat/Long: 35-23-56.0000N / 086-33-14.0000W
35-23.933333N / 086-33.233333W
35.3988889 / -86.5538889
(estimated)
Elevation: 850 ft. / 259 m (estimated)
Variation: 02W (1995)
From city: 7 miles SW of SHELBYVILLE, TN
Time zone: UTC -5 (UTC -6 during Standard Time)
Zip code: 37160

Airport Operations

Airport use: Private use. Permission required prior to landing
Activation date: 06/1998
Control tower: no
ARTCC: MEMPHIS CENTER
FSS: NASHVILLE FLIGHT SERVICE STATION
Attendance: IREG
Wind indicator: yes
Segmented circle: no

Airport Communications

WX AWOS-3 at SYI (11 nm NE): 119.275 (931-685-4723)
WX AWOS-3 at LUG (14 nm NW): 135.775 (931-270-1014)
WX AWOS-3 at THA (15 nm E): 128.325 (931-454-2052)

Nearby radio navigation aids

VOR radial/distance  VOR name  Freq  Var
SYIr211/11.3SHELBYVILLE VOR/DME109.0001W
UXMr277/(15.1)TULLAHOMA REGIONAL VOR109.6503W
RQZr004/36.3ROCKET VORTAC112.2002E

 
NDB name  Hdg/Dist  Freq  Var  ID
BURWI259/15.733203WULH ..- .-.. ....
BOILING FORK302/27.226303WBGF -... --. ..-.
MAURY COUNTY120/29.136504WPBC .--. -... -.-.
WALTER HILL197/34.937102WFQW ..-. --.- .--
CAPSHAW017/39.135001WCWH -.-. .-- ....

Airport Services

Runway Information

Runway 10/28

Dimensions: 3000 x 60 ft. / 914 x 18 m
Surface: turf
RUNWAY 10  RUNWAY 28
Traffic pattern: leftright
Obstructions: none35 ft. pline

Airport Ownership and Management from official FAA records

Ownership: Privately-owned
Owner: PLEASANT GROVE AIRPARK ASSN LLC
2056 HWY 130W
SHELBYVILLE, TN 37160
Phone 931-680-0233
Manager: BLAKE BUTLER
2056 HWY 130W
SHELBYVILLE, TN 37160
Phone 931-680-0233
BBUTLER@DREMC.COM

Airport Operational Statistics

Aircraft based on the field: 6
Single engine airplanes: 5
Gliders airplanes: 1
    

Instrument Procedures

There are no published instrument procedures at 8TN2.

Some nearby airports with instrument procedures:

KSYI - Bomar Field-Shelbyville Municipal Airport (11 nm NE)
KLUG - Ellington Airport (14 nm NW)
KTHA - Tullahoma Regional Airport/William Northern Field (15 nm E)
KFYM - Fayetteville Municipal Airport (20 nm S)
KBGF - Winchester Municipal Airport (27 nm SE)
 
Loc | Ops | Rwys | IFR | FBO | Links
Com | Nav | Svcs | Stats | Notes


 
Area around 8TN2 (Pleasant Grove Airpark)
 
Road maps at: MapQuest Bing Google
 
Aerial photo
No photo
 
Sectional chart

 
Airport distance calculator
Flying to Pleasant Grove Airpark? Find the distance to fly.

From to 8TN2

Sunrise and sunset
Times for 21-Jul-2017
 Local
(UTC-5)
 Zulu
(UTC)
Morning civil twilight05:1910:19
Sunrise05:4810:48
Sunset19:5800:58
Evening civil twilight20:2601:26

Current date and time
Zulu (UTC)  22-Jul-2017 04:51:27
Local (UTC-5)  21-Jul-2017 23:51:27
 
METAR
KSYI 
11nm NE 
220435Z AUTO 00000KT 10SM CLR 24/23 A3001 RMK A01
KTHA 
15nm E 
220435Z AUTO 00000KT 10SM CLR 24/22 A3004 RMK
KFYM 
20nm S 
220435Z AUTO 00000KT 10SM CLR 26/24 A3001 RMK A01
TAF
NOTAMs
Click for the latest NOTAMs
NOTAMs are issued by the DoD/FAA and will open in a separate window not controlled by AirNav.

 

 
 

Would you like to see your business listed on this page?

 If your business provides an interesting product or service to pilots, flight crews, aircraft, or users of the Pleasant Grove Airpark, you should consider listing it here.  To start the listing process, click on the button below
 
Add a business
 

Other Pages about Pleasant Grove Airpark

Update a link
 
Copyright © AirNav, LLC. All rights reserved. Privacy Policy  Contact